sensor_id;sensor_type;location;lat;lon;timestamp;P1;durP1;ratioP1;P2;durP2;ratioP2
34144;SDS011;69555;53.014;8.886;2023-06-01T00:00:14;18.52;;;7.90;;
34144;SDS011;69555;53.014;8.886;2023-06-01T00:02:41;21.05;;;9.13;;
34144;SDS011;69555;53.014;8.886;2023-06-01T00:05:06;23.92;;;8.55;;
34144;SDS011;69555;53.014;8.886;2023-06-01T00:07:32;20.90;;;8.60;;
34144;SDS011;69555;53.014;8.886;2023-06-01T00:09:58;28.90;;;8.52;;
34144;SDS011;69555;53.014;8.886;2023-06-01T00:12:25;21.95;;;8.90;;
34144;SDS011;69555;53.014;8.886;2023-06-01T00:14:50;22.65;;;8.15;;
34144;SDS011;69555;53.014;8.886;2023-06-01T00:17:16;20.73;;;7.88;;
34144;SDS011;69555;53.014;8.886;2023-06-01T00:19:41;22.77;;;7.97;;
34144;SDS011;69555;53.014;8.886;2023-06-01T00:22:09;22.77;;;8.27;;
34144;SDS011;69555;53.014;8.886;2023-06-01T00:24:35;24.70;;;8.23;;
34144;SDS011;69555;53.014;8.886;2023-06-01T00:27:01;21.15;;;8.45;;
34144;SDS011;69555;53.014;8.886;2023-06-01T00:29:27;20.85;;;8.40;;
34144;SDS011;69555;53.014;8.886;2023-06-01T00:31:52;19.35;;;8.05;;
34144;SDS011;69555;53.014;8.886;2023-06-01T00:34:18;23.48;;;7.75;;
34144;SDS011;69555;53.014;8.886;2023-06-01T00:36:43;24.55;;;9.35;;
34144;SDS011;69555;53.014;8.886;2023-06-01T00:39:09;23.45;;;8.77;;
34144;SDS011;69555;53.014;8.886;2023-06-01T00:41:34;23.45;;;8.98;;
34144;SDS011;69555;53.014;8.886;2023-06-01T00:44:00;18.67;;;10.02;;
34144;SDS011;69555;53.014;8.886;2023-06-01T00:46:26;21.15;;;9.98;;
34144;SDS011;69555;53.014;8.886;2023-06-01T00:48:53;19.67;;;9.35;;
34144;SDS011;69555;53.014;8.886;2023-06-01T00:51:19;25.10;;;9.38;;
34144;SDS011;69555;53.014;8.886;2023-06-01T00:53:44;22.30;;;9.27;;
34144;SDS011;69555;53.014;8.886;2023-06-01T00:56:10;19.75;;;8.80;;
34144;SDS011;69555;53.014;8.886;2023-06-01T00:58:41;20.65;;;10.15;;
34144;SDS011;69555;53.014;8.886;2023-06-01T01:01:07;22.77;;;9.32;;
34144;SDS011;69555;53.014;8.886;2023-06-01T01:03:33;20.45;;;7.38;;
34144;SDS011;69555;53.014;8.886;2023-06-01T01:09:27;22.02;;;6.93;;
34144;SDS011;69555;53.014;8.886;2023-06-01T01:11:40;19.13;;;7.07;;
34144;SDS011;69555;53.014;8.886;2023-06-01T01:14:14;12.80;;;6.43;;
34144;SDS011;69555;53.014;8.886;2023-06-01T01:19:50;16.70;;;7.22;;
34144;SDS011;69555;53.014;8.886;2023-06-01T01:22:36;16.30;;;7.28;;
34144;SDS011;69555;53.014;8.886;2023-06-01T01:28:41;14.88;;;8.02;;
34144;SDS011;69555;53.014;8.886;2023-06-01T01:31:19;15.63;;;6.95;;
34144;SDS011;69555;53.014;8.886;2023-06-01T01:33:48;16.77;;;7.32;;
34144;SDS011;69555;53.014;8.886;2023-06-01T01:36:17;24.38;;;8.88;;
34144;SDS011;69555;53.014;8.886;2023-06-01T01:38:42;15.60;;;8.13;;
34144;SDS011;69555;53.014;8.886;2023-06-01T01:41:07;15.90;;;7.88;;
34144;SDS011;69555;53.014;8.886;2023-06-01T01:43:33;21.05;;;8.85;;
34144;SDS011;69555;53.014;8.886;2023-06-01T01:46:06;22.40;;;8.20;;
34144;SDS011;69555;53.014;8.886;2023-06-01T01:54:52;20.20;;;8.75;;
34144;SDS011;69555;53.014;8.886;2023-06-01T01:57:20;17.77;;;7.38;;
34144;SDS011;69555;53.014;8.886;2023-06-01T01:59:47;15.13;;;7.68;;
34144;SDS011;69555;53.014;8.886;2023-06-01T02:02:14;17.90;;;8.98;;
34144;SDS011;69555;53.014;8.886;2023-06-01T02:04:40;18.17;;;7.13;;
34144;SDS011;69555;53.014;8.886;2023-06-01T02:07:07;18.70;;;7.25;;
34144;SDS011;69555;53.014;8.886;2023-06-01T02:09:33;23.48;;;7.00;;
34144;SDS011;69555;53.014;8.886;2023-06-01T02:11:58;15.75;;;7.53;;
34144;SDS011;69555;53.014;8.886;2023-06-01T02:14:24;16.45;;;7.78;;
34144;SDS011;69555;53.014;8.886;2023-06-01T02:16:50;12.20;;;5.93;;
34144;SDS011;69555;53.014;8.886;2023-06-01T02:19:15;16.55;;;5.63;;
34144;SDS011;69555;53.014;8.886;2023-06-01T02:21:41;16.92;;;6.25;;
34144;SDS011;69555;53.014;8.886;2023-06-01T02:24:07;12.40;;;6.82;;
34144;SDS011;69555;53.014;8.886;2023-06-01T02:26:34;19.90;;;6.40;;
34144;SDS011;69555;53.014;8.886;2023-06-01T02:28:59;13.50;;;6.10;;
34144;SDS011;69555;53.014;8.886;2023-06-01T02:31:27;25.10;;;6.18;;
34144;SDS011;69555;53.014;8.886;2023-06-01T02:33:53;17.02;;;5.75;;
34144;SDS011;69555;53.014;8.886;2023-06-01T02:36:18;14.90;;;5.18;;
34144;SDS011;69555;53.014;8.886;2023-06-01T02:38:44;13.65;;;5.90;;
34144;SDS011;69555;53.014;8.886;2023-06-01T02:41:10;18.75;;;7.68;;
34144;SDS011;69555;53.014;8.886;2023-06-01T02:43:36;15.52;;;5.57;;
34144;SDS011;69555;53.014;8.886;2023-06-01T02:46:02;16.25;;;5.60;;
34144;SDS011;69555;53.014;8.886;2023-06-01T02:48:28;12.02;;;5.20;;
34144;SDS011;69555;53.014;8.886;2023-06-01T02:50:54;14.38;;;5.53;;
34144;SDS011;69555;53.014;8.886;2023-06-01T02:53:20;20.48;;;5.05;;
34144;SDS011;69555;53.014;8.886;2023-06-01T02:55:45;12.90;;;5.55;;
34144;SDS011;69555;53.014;8.886;2023-06-01T02:58:11;15.52;;;5.55;;
34144;SDS011;69555;53.014;8.886;2023-06-01T03:03:09;15.90;;;5.88;;
34144;SDS011;69555;53.014;8.886;2023-06-01T03:05:35;11.38;;;5.10;;
34144;SDS011;69555;53.014;8.886;2023-06-01T03:08:01;14.27;;;5.30;;
34144;SDS011;69555;53.014;8.886;2023-06-01T03:10:27;15.07;;;5.85;;
34144;SDS011;69555;53.014;8.886;2023-06-01T03:12:53;17.02;;;5.35;;
34144;SDS011;69555;53.014;8.886;2023-06-01T03:15:18;16.92;;;5.15;;
34144;SDS011;69555;53.014;8.886;2023-06-01T03:17:44;15.75;;;5.32;;
34144;SDS011;69555;53.014;8.886;2023-06-01T03:20:09;18.42;;;5.78;;
34144;SDS011;69555;53.014;8.886;2023-06-01T03:22:42;15.77;;;5.32;;
34144;SDS011;69555;53.014;8.886;2023-06-01T03:25:08;17.58;;;4.75;;
34144;SDS011;69555;53.014;8.886;2023-06-01T03:27:49;14.07;;;5.28;;
34144;SDS011;69555;53.014;8.886;2023-06-01T03:30:14;12.50;;;4.50;;
34144;SDS011;69555;53.014;8.886;2023-06-01T03:32:40;15.73;;;5.40;;
34144;SDS011;69555;53.014;8.886;2023-06-01T03:35:07;12.50;;;4.45;;
34144;SDS011;69555;53.014;8.886;2023-06-01T03:37:33;25.13;;;5.55;;
34144;SDS011;69555;53.014;8.886;2023-06-01T03:40:00;16.52;;;5.05;;
34144;SDS011;69555;53.014;8.886;2023-06-01T03:42:26;15.18;;;5.60;;
34144;SDS011;69555;53.014;8.886;2023-06-01T03:44:52;17.55;;;6.45;;
34144;SDS011;69555;53.014;8.886;2023-06-01T03:47:17;18.25;;;6.00;;
34144;SDS011;69555;53.014;8.886;2023-06-01T03:49:43;17.52;;;6.43;;
34144;SDS011;69555;53.014;8.886;2023-06-01T03:52:09;16.23;;;5.78;;
34144;SDS011;69555;53.014;8.886;2023-06-01T03:54:34;19.27;;;6.03;;
34144;SDS011;69555;53.014;8.886;2023-06-01T03:57:00;26.38;;;6.45;;
34144;SDS011;69555;53.014;8.886;2023-06-01T03:59:25;16.20;;;6.22;;
34144;SDS011;69555;53.014;8.886;2023-06-01T04:01:51;15.00;;;6.18;;
34144;SDS011;69555;53.014;8.886;2023-06-01T04:04:17;11.00;;;5.40;;
34144;SDS011;69555;53.014;8.886;2023-06-01T04:06:45;15.40;;;5.60;;
34144;SDS011;69555;53.014;8.886;2023-06-01T04:09:11;14.50;;;5.47;;
34144;SDS011;69555;53.014;8.886;2023-06-01T04:11:38;18.48;;;5.18;;
34144;SDS011;69555;53.014;8.886;2023-06-01T04:14:04;15.40;;;6.03;;
34144;SDS011;69555;53.014;8.886;2023-06-01T04:16:30;21.60;;;6.13;;
34144;SDS011;69555;53.014;8.886;2023-06-01T04:18:55;19.70;;;6.90;;
34144;SDS011;69555;53.014;8.886;2023-06-01T04:21:21;19.55;;;6.13;;
34144;SDS011;69555;53.014;8.886;2023-06-01T04:23:47;21.83;;;6.30;;
34144;SDS011;69555;53.014;8.886;2023-06-01T04:26:14;13.90;;;6.55;;
34144;SDS011;69555;53.014;8.886;2023-06-01T04:28:40;14.95;;;6.43;;
34144;SDS011;69555;53.014;8.886;2023-06-01T04:31:14;24.05;;;7.47;;
34144;SDS011;69555;53.014;8.886;2023-06-01T04:33:46;23.75;;;6.85;;
34144;SDS011;69555;53.014;8.886;2023-06-01T04:36:18;24.90;;;6.97;;
34144;SDS011;69555;53.014;8.886;2023-06-01T04:38:54;21.48;;;6.88;;
34144;SDS011;69555;53.014;8.886;2023-06-01T04:41:20;21.80;;;7.25;;
34144;SDS011;69555;53.014;8.886;2023-06-01T04:43:53;22.73;;;6.55;;
34144;SDS011;69555;53.014;8.886;2023-06-01T04:46:22;31.13;;;7.03;;
34144;SDS011;69555;53.014;8.886;2023-06-01T04:48:50;17.55;;;6.25;;
34144;SDS011;69555;53.014;8.886;2023-06-01T04:51:20;15.98;;;6.25;;
34144;SDS011;69555;53.014;8.886;2023-06-01T04:53:46;18.52;;;6.28;;
34144;SDS011;69555;53.014;8.886;2023-06-01T04:56:24;19.83;;;7.07;;
34144;SDS011;69555;53.014;8.886;2023-06-01T04:58:55;19.38;;;4.85;;
34144;SDS011;69555;53.014;8.886;2023-06-01T05:01:21;17.70;;;5.47;;
34144;SDS011;69555;53.014;8.886;2023-06-01T05:03:50;20.25;;;6.38;;
34144;SDS011;69555;53.014;8.886;2023-06-01T05:06:16;22.58;;;6.25;;
34144;SDS011;69555;53.014;8.886;2023-06-01T05:08:42;20.98;;;6.60;;
34144;SDS011;69555;53.014;8.886;2023-06-01T05:11:08;16.25;;;5.40;;
34144;SDS011;69555;53.014;8.886;2023-06-01T05:13:37;13.98;;;5.78;;
34144;SDS011;69555;53.014;8.886;2023-06-01T05:16:05;16.55;;;5.55;;
34144;SDS011;69555;53.014;8.886;2023-06-01T05:18:32;9.50;;;3.97;;
34144;SDS011;69555;53.014;8.886;2023-06-01T05:20:58;11.70;;;4.90;;
34144;SDS011;69555;53.014;8.886;2023-06-01T05:23:24;17.92;;;5.65;;
34144;SDS011;69555;53.014;8.886;2023-06-01T05:25:50;14.38;;;5.63;;
34144;SDS011;69555;53.014;8.886;2023-06-01T05:28:16;20.67;;;5.88;;
34144;SDS011;69555;53.014;8.886;2023-06-01T05:30:42;17.48;;;5.47;;
34144;SDS011;69555;53.014;8.886;2023-06-01T05:33:07;13.32;;;5.07;;
34144;SDS011;69555;53.014;8.886;2023-06-01T05:35:33;21.70;;;6.50;;
34144;SDS011;69555;53.014;8.886;2023-06-01T05:37:59;11.95;;;4.78;;
34144;SDS011;69555;53.014;8.886;2023-06-01T05:40:25;14.80;;;4.88;;
34144;SDS011;69555;53.014;8.886;2023-06-01T05:42:50;19.25;;;6.38;;
34144;SDS011;69555;53.014;8.886;2023-06-01T05:45:16;14.52;;;5.90;;
34144;SDS011;69555;53.014;8.886;2023-06-01T05:47:41;19.40;;;5.53;;
34144;SDS011;69555;53.014;8.886;2023-06-01T05:50:07;15.70;;;5.32;;
34144;SDS011;69555;53.014;8.886;2023-06-01T06:06:24;9.35;;;3.83;;
34144;SDS011;69555;53.014;8.886;2023-06-01T06:08:50;9.57;;;4.10;;
34144;SDS011;69555;53.014;8.886;2023-06-01T06:11:16;10.25;;;3.33;;
34144;SDS011;69555;53.014;8.886;2023-06-01T06:13:41;7.93;;;3.92;;
34144;SDS011;69555;53.014;8.886;2023-06-01T06:16:07;13.43;;;4.13;;
34144;SDS011;69555;53.014;8.886;2023-06-01T06:36:40;7.47;;;4.40;;
34144;SDS011;69555;53.014;8.886;2023-06-01T06:39:05;16.50;;;3.78;;
34144;SDS011;69555;53.014;8.886;2023-06-01T06:41:30;19.10;;;5.05;;
34144;SDS011;69555;53.014;8.886;2023-06-01T06:43:56;10.20;;;4.57;;
34144;SDS011;69555;53.014;8.886;2023-06-01T06:46:22;12.82;;;4.97;;
34144;SDS011;69555;53.014;8.886;2023-06-01T06:48:48;12.65;;;4.88;;
34144;SDS011;69555;53.014;8.886;2023-06-01T06:51:13;13.82;;;5.22;;
34144;SDS011;69555;53.014;8.886;2023-06-01T06:53:38;11.50;;;5.20;;
34144;SDS011;69555;53.014;8.886;2023-06-01T06:56:04;18.48;;;5.75;;
34144;SDS011;69555;53.014;8.886;2023-06-01T06:58:29;10.30;;;4.70;;
34144;SDS011;69555;53.014;8.886;2023-06-01T07:00:55;10.90;;;4.72;;
34144;SDS011;69555;53.014;8.886;2023-06-01T07:03:20;11.63;;;4.38;;
34144;SDS011;69555;53.014;8.886;2023-06-01T07:05:46;15.40;;;4.97;;
34144;SDS011;69555;53.014;8.886;2023-06-01T07:08:12;16.25;;;5.20;;
34144;SDS011;69555;53.014;8.886;2023-06-01T07:10:38;14.20;;;6.07;;
34144;SDS011;69555;53.014;8.886;2023-06-01T07:13:03;16.77;;;4.68;;
34144;SDS011;69555;53.014;8.886;2023-06-01T07:15:29;9.93;;;4.45;;
34144;SDS011;69555;53.014;8.886;2023-06-01T07:17:55;11.02;;;4.10;;
34144;SDS011;69555;53.014;8.886;2023-06-01T07:20:22;11.35;;;4.60;;
34144;SDS011;69555;53.014;8.886;2023-06-01T07:22:48;14.90;;;4.28;;
34144;SDS011;69555;53.014;8.886;2023-06-01T07:25:15;13.05;;;4.80;;
34144;SDS011;69555;53.014;8.886;2023-06-01T07:27:40;11.40;;;4.78;;
34144;SDS011;69555;53.014;8.886;2023-06-01T07:30:08;10.02;;;4.47;;
34144;SDS011;69555;53.014;8.886;2023-06-01T07:32:35;12.45;;;4.07;;
34144;SDS011;69555;53.014;8.886;2023-06-01T07:35:00;8.60;;;4.28;;
34144;SDS011;69555;53.014;8.886;2023-06-01T07:37:26;14.60;;;4.88;;
34144;SDS011;69555;53.014;8.886;2023-06-01T07:39:53;16.15;;;4.50;;
34144;SDS011;69555;53.014;8.886;2023-06-01T07:42:19;13.20;;;5.00;;
34144;SDS011;69555;53.014;8.886;2023-06-01T07:44:45;14.73;;;5.47;;
34144;SDS011;69555;53.014;8.886;2023-06-01T07:47:11;11.63;;;5.00;;
34144;SDS011;69555;53.014;8.886;2023-06-01T07:49:36;13.45;;;4.68;;
34144;SDS011;69555;53.014;8.886;2023-06-01T07:52:02;8.38;;;4.68;;
34144;SDS011;69555;53.014;8.886;2023-06-01T07:54:30;9.73;;;4.97;;
34144;SDS011;69555;53.014;8.886;2023-06-01T07:56:56;13.05;;;5.07;;
34144;SDS011;69555;53.014;8.886;2023-06-01T07:59:22;9.27;;;4.70;;
34144;SDS011;69555;53.014;8.886;2023-06-01T08:01:48;12.50;;;5.28;;
34144;SDS011;69555;53.014;8.886;2023-06-01T08:04:15;14.10;;;5.07;;
34144;SDS011;69555;53.014;8.886;2023-06-01T08:06:41;11.73;;;4.72;;
34144;SDS011;69555;53.014;8.886;2023-06-01T08:09:08;11.77;;;4.53;;
34144;SDS011;69555;53.014;8.886;2023-06-01T08:11:35;10.77;;;4.43;;
34144;SDS011;69555;53.014;8.886;2023-06-01T08:14:01;9.15;;;4.68;;
34144;SDS011;69555;53.014;8.886;2023-06-01T08:16:28;17.13;;;5.55;;
34144;SDS011;69555;53.014;8.886;2023-06-01T08:18:54;13.38;;;5.22;;
34144;SDS011;69555;53.014;8.886;2023-06-01T08:21:21;13.63;;;5.45;;
34144;SDS011;69555;53.014;8.886;2023-06-01T08:23:47;19.30;;;5.60;;
34144;SDS011;69555;53.014;8.886;2023-06-01T08:26:13;15.07;;;5.80;;
34144;SDS011;69555;53.014;8.886;2023-06-01T08:28:38;15.73;;;5.32;;
34144;SDS011;69555;53.014;8.886;2023-06-01T08:31:04;13.35;;;5.10;;
34144;SDS011;69555;53.014;8.886;2023-06-01T08:33:29;14.25;;;5.10;;
34144;SDS011;69555;53.014;8.886;2023-06-01T08:35:55;14.23;;;5.38;;
34144;SDS011;69555;53.014;8.886;2023-06-01T08:38:21;14.43;;;5.13;;
34144;SDS011;69555;53.014;8.886;2023-06-01T08:40:46;13.00;;;4.45;;
34144;SDS011;69555;53.014;8.886;2023-06-01T08:45:42;20.52;;;5.57;;
34144;SDS011;69555;53.014;8.886;2023-06-01T08:48:08;14.10;;;7.03;;
34144;SDS011;69555;53.014;8.886;2023-06-01T08:50:37;14.20;;;5.18;;
34144;SDS011;69555;53.014;8.886;2023-06-01T08:53:03;9.40;;;4.57;;
34144;SDS011;69555;53.014;8.886;2023-06-01T08:55:30;14.85;;;5.28;;
34144;SDS011;69555;53.014;8.886;2023-06-01T08:57:56;15.48;;;4.90;;
34144;SDS011;69555;53.014;8.886;2023-06-01T09:00:22;12.77;;;4.85;;
34144;SDS011;69555;53.014;8.886;2023-06-01T09:02:49;11.70;;;4.43;;
34144;SDS011;69555;53.014;8.886;2023-06-01T09:05:14;14.75;;;4.47;;
34144;SDS011;69555;53.014;8.886;2023-06-01T09:07:42;13.13;;;4.35;;
34144;SDS011;69555;53.014;8.886;2023-06-01T09:10:07;12.95;;;4.72;;
34144;SDS011;69555;53.014;8.886;2023-06-01T09:12:33;7.85;;;4.20;;
34144;SDS011;69555;53.014;8.886;2023-06-01T09:15:14;11.73;;;4.30;;
34144;SDS011;69555;53.014;8.886;2023-06-01T09:17:47;16.67;;;4.97;;
34144;SDS011;69555;53.014;8.886;2023-06-01T09:22:48;14.80;;;5.05;;
34144;SDS011;69555;53.014;8.886;2023-06-01T09:25:14;10.95;;;4.47;;
34144;SDS011;69555;53.014;8.886;2023-06-01T09:32:35;13.35;;;4.80;;
34144;SDS011;69555;53.014;8.886;2023-06-01T09:35:00;10.95;;;4.50;;
34144;SDS011;69555;53.014;8.886;2023-06-01T09:37:26;14.23;;;4.65;;
34144;SDS011;69555;53.014;8.886;2023-06-01T09:39:51;24.40;;;5.32;;
34144;SDS011;69555;53.014;8.886;2023-06-01T09:42:17;11.48;;;4.05;;
34144;SDS011;69555;53.014;8.886;2023-06-01T09:44:42;13.25;;;5.70;;
34144;SDS011;69555;53.014;8.886;2023-06-01T09:47:09;13.07;;;4.32;;
34144;SDS011;69555;53.014;8.886;2023-06-01T09:49:44;13.83;;;4.73;;
34144;SDS011;69555;53.014;8.886;2023-06-01T09:52:14;9.55;;;4.65;;
34144;SDS011;69555;53.014;8.886;2023-06-01T09:54:48;16.25;;;4.75;;
34144;SDS011;69555;53.014;8.886;2023-06-01T09:57:25;14.32;;;4.20;;
34144;SDS011;69555;53.014;8.886;2023-06-01T09:59:53;9.43;;;4.05;;
34144;SDS011;69555;53.014;8.886;2023-06-01T10:02:19;12.18;;;5.35;;
34144;SDS011;69555;53.014;8.886;2023-06-01T10:04:56;9.95;;;3.50;;
34144;SDS011;69555;53.014;8.886;2023-06-01T10:07:28;13.90;;;3.35;;
34144;SDS011;69555;53.014;8.886;2023-06-01T10:09:56;12.85;;;5.00;;
34144;SDS011;69555;53.014;8.886;2023-06-01T10:12:26;8.82;;;4.15;;
34144;SDS011;69555;53.014;8.886;2023-06-01T10:17:19;9.80;;;3.95;;
34144;SDS011;69555;53.014;8.886;2023-06-01T10:19:45;6.47;;;3.30;;
34144;SDS011;69555;53.014;8.886;2023-06-01T10:22:10;5.75;;;2.63;;
34144;SDS011;69555;53.014;8.886;2023-06-01T10:24:37;17.85;;;3.78;;
34144;SDS011;69555;53.014;8.886;2023-06-01T10:30:29;8.43;;;2.55;;
34144;SDS011;69555;53.014;8.886;2023-06-01T10:32:55;7.85;;;2.70;;
34144;SDS011;69555;53.014;8.886;2023-06-01T10:40:40;12.10;;;5.35;;
34144;SDS011;69555;53.014;8.886;2023-06-01T10:43:06;19.00;;;4.43;;
34144;SDS011;69555;53.014;8.886;2023-06-01T10:47:59;14.98;;;3.85;;
34144;SDS011;69555;53.014;8.886;2023-06-01T10:50:28;18.42;;;4.60;;
34144;SDS011;69555;53.014;8.886;2023-06-01T10:52:54;15.02;;;6.22;;
34144;SDS011;69555;53.014;8.886;2023-06-01T10:55:22;18.77;;;3.83;;
34144;SDS011;69555;53.014;8.886;2023-06-01T10:57:49;11.35;;;3.97;;
34144;SDS011;69555;53.014;8.886;2023-06-01T11:10:59;18.63;;;5.13;;
34144;SDS011;69555;53.014;8.886;2023-06-01T11:13:34;9.77;;;4.38;;
34144;SDS011;69555;53.014;8.886;2023-06-01T11:18:45;12.93;;;4.28;;
34144;SDS011;69555;53.014;8.886;2023-06-01T11:21:21;16.35;;;3.78;;
34144;SDS011;69555;53.014;8.886;2023-06-01T11:23:48;16.17;;;4.28;;
34144;SDS011;69555;53.014;8.886;2023-06-01T11:26:15;12.20;;;4.22;;
34144;SDS011;69555;53.014;8.886;2023-06-01T11:28:43;16.90;;;3.95;;
34144;SDS011;69555;53.014;8.886;2023-06-01T11:31:10;17.77;;;4.63;;
34144;SDS011;69555;53.014;8.886;2023-06-01T11:33:41;18.65;;;5.10;;
34144;SDS011;69555;53.014;8.886;2023-06-01T11:36:12;20.98;;;4.18;;
34144;SDS011;69555;53.014;8.886;2023-06-01T11:38:43;14.85;;;3.50;;
34144;SDS011;69555;53.014;8.886;2023-06-01T11:41:09;13.18;;;3.85;;
34144;SDS011;69555;53.014;8.886;2023-06-01T11:43:35;17.67;;;5.57;;
34144;SDS011;69555;53.014;8.886;2023-06-01T11:46:04;15.57;;;4.95;;
34144;SDS011;69555;53.014;8.886;2023-06-01T11:48:31;12.57;;;5.22;;
34144;SDS011;69555;53.014;8.886;2023-06-01T11:50:59;14.77;;;4.95;;
34144;SDS011;69555;53.014;8.886;2023-06-01T11:53:25;17.67;;;5.72;;
34144;SDS011;69555;53.014;8.886;2023-06-01T11:55:52;13.77;;;5.22;;
34144;SDS011;69555;53.014;8.886;2023-06-01T11:58:29;15.93;;;4.80;;
34144;SDS011;69555;53.014;8.886;2023-06-01T12:00:55;13.93;;;4.05;;
34144;SDS011;69555;53.014;8.886;2023-06-01T12:03:22;17.10;;;4.88;;
34144;SDS011;69555;53.014;8.886;2023-06-01T12:05:51;15.52;;;6.32;;
34144;SDS011;69555;53.014;8.886;2023-06-01T12:10:44;16.45;;;5.10;;
34144;SDS011;69555;53.014;8.886;2023-06-01T12:13:11;12.07;;;5.45;;
34144;SDS011;69555;53.014;8.886;2023-06-01T12:15:37;14.13;;;4.75;;
34144;SDS011;69555;53.014;8.886;2023-06-01T12:18:03;18.60;;;4.47;;
34144;SDS011;69555;53.014;8.886;2023-06-01T12:22:54;15.05;;;4.75;;
34144;SDS011;69555;53.014;8.886;2023-06-01T12:25:21;12.55;;;4.80;;
34144;SDS011;69555;53.014;8.886;2023-06-01T12:28:01;11.23;;;4.30;;
34144;SDS011;69555;53.014;8.886;2023-06-01T12:30:26;15.15;;;3.95;;
34144;SDS011;69555;53.014;8.886;2023-06-01T12:32:52;14.50;;;4.32;;
34144;SDS011;69555;53.014;8.886;2023-06-01T12:35:17;12.30;;;4.43;;
34144;SDS011;69555;53.014;8.886;2023-06-01T12:37:43;15.15;;;3.88;;
34144;SDS011;69555;53.014;8.886;2023-06-01T12:40:09;8.85;;;4.57;;
34144;SDS011;69555;53.014;8.886;2023-06-01T12:42:35;18.05;;;4.07;;
34144;SDS011;69555;53.014;8.886;2023-06-01T12:45:02;14.55;;;4.75;;
34144;SDS011;69555;53.014;8.886;2023-06-01T12:47:37;15.13;;;3.90;;
34144;SDS011;69555;53.014;8.886;2023-06-01T12:52:37;18.67;;;5.45;;
34144;SDS011;69555;53.014;8.886;2023-06-01T12:55:03;19.58;;;5.43;;
34144;SDS011;69555;53.014;8.886;2023-06-01T12:57:30;14.50;;;6.07;;
34144;SDS011;69555;53.014;8.886;2023-06-01T12:59:56;13.82;;;5.35;;
34144;SDS011;69555;53.014;8.886;2023-06-01T13:02:21;19.55;;;6.32;;
34144;SDS011;69555;53.014;8.886;2023-06-01T13:04:48;21.02;;;5.13;;
34144;SDS011;69555;53.014;8.886;2023-06-01T13:07:13;10.77;;;3.72;;
34144;SDS011;69555;53.014;8.886;2023-06-01T13:09:39;16.55;;;5.85;;
34144;SDS011;69555;53.014;8.886;2023-06-01T13:12:05;17.13;;;5.68;;
34144;SDS011;69555;53.014;8.886;2023-06-01T13:14:31;16.85;;;5.30;;
34144;SDS011;69555;53.014;8.886;2023-06-01T13:16:57;17.92;;;5.22;;
34144;SDS011;69555;53.014;8.886;2023-06-01T13:19:22;18.23;;;5.72;;
34144;SDS011;69555;53.014;8.886;2023-06-01T13:21:50;27.02;;;5.70;;
34144;SDS011;69555;53.014;8.886;2023-06-01T13:24:16;22.00;;;5.45;;
34144;SDS011;69555;53.014;8.886;2023-06-01T13:26:41;18.77;;;4.57;;
34144;SDS011;69555;53.014;8.886;2023-06-01T13:29:07;20.45;;;4.97;;
34144;SDS011;69555;53.014;8.886;2023-06-01T13:31:34;12.43;;;5.35;;
34144;SDS011;69555;53.014;8.886;2023-06-01T13:34:00;10.95;;;4.82;;
34144;SDS011;69555;53.014;8.886;2023-06-01T13:36:26;10.15;;;3.72;;
34144;SDS011;69555;53.014;8.886;2023-06-01T13:38:52;14.20;;;4.13;;
34144;SDS011;69555;53.014;8.886;2023-06-01T13:41:17;18.92;;;5.63;;
34144;SDS011;69555;53.014;8.886;2023-06-01T13:43:43;14.38;;;5.43;;
34144;SDS011;69555;53.014;8.886;2023-06-01T13:46:08;14.32;;;3.90;;
34144;SDS011;69555;53.014;8.886;2023-06-01T13:48:35;13.32;;;4.55;;
34144;SDS011;69555;53.014;8.886;2023-06-01T13:51:01;14.75;;;4.90;;
34144;SDS011;69555;53.014;8.886;2023-06-01T13:53:26;25.50;;;6.00;;
34144;SDS011;69555;53.014;8.886;2023-06-01T13:55:52;10.77;;;3.97;;
34144;SDS011;69555;53.014;8.886;2023-06-01T13:58:17;10.65;;;4.40;;
34144;SDS011;69555;53.014;8.886;2023-06-01T14:00:43;17.05;;;5.00;;
34144;SDS011;69555;53.014;8.886;2023-06-01T14:03:08;14.95;;;4.18;;
34144;SDS011;69555;53.014;8.886;2023-06-01T14:05:33;17.10;;;4.13;;
34144;SDS011;69555;53.014;8.886;2023-06-01T14:07:59;15.80;;;3.97;;
34144;SDS011;69555;53.014;8.886;2023-06-01T14:10:24;13.95;;;3.67;;
34144;SDS011;69555;53.014;8.886;2023-06-01T14:12:50;11.00;;;3.95;;
34144;SDS011;69555;53.014;8.886;2023-06-01T14:15:15;9.27;;;3.92;;
34144;SDS011;69555;53.014;8.886;2023-06-01T14:17:41;13.82;;;3.55;;
34144;SDS011;69555;53.014;8.886;2023-06-01T14:20:06;19.63;;;4.70;;
34144;SDS011;69555;53.014;8.886;2023-06-01T14:22:33;16.50;;;4.88;;
34144;SDS011;69555;53.014;8.886;2023-06-01T14:24:58;13.82;;;3.78;;
34144;SDS011;69555;53.014;8.886;2023-06-01T14:27:24;7.88;;;3.10;;
34144;SDS011;69555;53.014;8.886;2023-06-01T14:29:49;16.67;;;3.95;;
34144;SDS011;69555;53.014;8.886;2023-06-01T14:32:14;14.30;;;3.47;;
34144;SDS011;69555;53.014;8.886;2023-06-01T14:34:40;18.60;;;4.32;;
34144;SDS011;69555;53.014;8.886;2023-06-01T14:37:05;13.70;;;3.60;;
34144;SDS011;69555;53.014;8.886;2023-06-01T14:39:32;10.77;;;3.55;;
34144;SDS011;69555;53.014;8.886;2023-06-01T14:41:57;20.80;;;3.72;;
34144;SDS011;69555;53.014;8.886;2023-06-01T14:44:23;9.48;;;3.42;;
34144;SDS011;69555;53.014;8.886;2023-06-01T14:46:48;11.40;;;4.15;;
34144;SDS011;69555;53.014;8.886;2023-06-01T14:49:13;16.25;;;3.83;;
34144;SDS011;69555;53.014;8.886;2023-06-01T14:51:39;9.30;;;2.88;;
34144;SDS011;69555;53.014;8.886;2023-06-01T14:54:04;10.95;;;2.60;;
34144;SDS011;69555;53.014;8.886;2023-06-01T14:56:30;12.30;;;3.05;;
34144;SDS011;69555;53.014;8.886;2023-06-01T14:58:56;7.93;;;3.60;;
34144;SDS011;69555;53.014;8.886;2023-06-01T15:01:21;10.18;;;3.03;;
34144;SDS011;69555;53.014;8.886;2023-06-01T15:03:48;9.57;;;3.15;;
34144;SDS011;69555;53.014;8.886;2023-06-01T15:06:14;9.77;;;2.58;;
34144;SDS011;69555;53.014;8.886;2023-06-01T15:08:40;8.05;;;3.05;;
34144;SDS011;69555;53.014;8.886;2023-06-01T15:11:05;8.73;;;2.72;;
34144;SDS011;69555;53.014;8.886;2023-06-01T15:13:30;6.72;;;2.17;;
34144;SDS011;69555;53.014;8.886;2023-06-01T15:15:56;9.93;;;2.83;;
34144;SDS011;69555;53.014;8.886;2023-06-01T15:18:21;6.82;;;2.20;;
34144;SDS011;69555;53.014;8.886;2023-06-01T15:20:47;6.68;;;1.90;;
34144;SDS011;69555;53.014;8.886;2023-06-01T15:23:14;6.63;;;2.20;;
34144;SDS011;69555;53.014;8.886;2023-06-01T15:25:40;9.43;;;2.03;;
34144;SDS011;69555;53.014;8.886;2023-06-01T15:28:05;3.53;;;1.77;;
34144;SDS011;69555;53.014;8.886;2023-06-01T15:30:30;8.50;;;2.30;;
34144;SDS011;69555;53.014;8.886;2023-06-01T15:32:57;8.70;;;2.28;;
34144;SDS011;69555;53.014;8.886;2023-06-01T15:35:23;7.75;;;2.30;;
34144;SDS011;69555;53.014;8.886;2023-06-01T15:37:49;11.43;;;2.92;;
34144;SDS011;69555;53.014;8.886;2023-06-01T15:40:15;12.07;;;2.38;;
34144;SDS011;69555;53.014;8.886;2023-06-01T15:42:40;7.70;;;2.22;;
34144;SDS011;69555;53.014;8.886;2023-06-01T15:45:06;7.72;;;2.85;;
34144;SDS011;69555;53.014;8.886;2023-06-01T15:47:32;13.48;;;2.45;;
34144;SDS011;69555;53.014;8.886;2023-06-01T15:49:58;7.60;;;1.77;;
34144;SDS011;69555;53.014;8.886;2023-06-01T15:52:23;7.38;;;2.00;;
34144;SDS011;69555;53.014;8.886;2023-06-01T15:54:49;8.95;;;2.85;;
34144;SDS011;69555;53.014;8.886;2023-06-01T15:57:14;8.93;;;2.22;;
34144;SDS011;69555;53.014;8.886;2023-06-01T15:59:40;12.60;;;2.28;;
34144;SDS011;69555;53.014;8.886;2023-06-01T16:02:05;6.28;;;2.28;;
34144;SDS011;69555;53.014;8.886;2023-06-01T16:04:31;12.10;;;2.60;;
34144;SDS011;69555;53.014;8.886;2023-06-01T16:06:56;3.83;;;1.60;;